sensor_id;sensor_type;location;lat;lon;timestamp;pressure;altitude;pressure_sealevel;temperature;humidity
829;BME280;396;52.558;13.188;2023-12-04T00:02:19;101600.78;;;-4.36;96.70
829;BME280;396;52.558;13.188;2023-12-04T00:04:45;101599.19;;;-4.45;96.28
829;BME280;396;52.558;13.188;2023-12-04T00:07:12;101601.06;;;-4.54;96.20
829;BME280;396;52.558;13.188;2023-12-04T00:09:39;101592.66;;;-4.58;96.46
829;BME280;396;52.558;13.188;2023-12-04T00:12:06;101600.78;;;-4.59;96.38
829;BME280;396;52.558;13.188;2023-12-04T00:14:32;101598.00;;;-4.66;96.07
829;BME280;396;52.558;13.188;2023-12-04T00:16:59;101601.66;;;-4.67;95.73
829;BME280;396;52.558;13.188;2023-12-04T00:19:27;101595.94;;;-4.78;95.69
829;BME280;396;52.558;13.188;2023-12-04T00:21:53;101593.97;;;-4.76;96.06
829;BME280;396;52.558;13.188;2023-12-04T00:24:20;101593.25;;;-4.70;95.96
829;BME280;396;52.558;13.188;2023-12-04T00:26:47;101602.66;;;-4.68;95.70
829;BME280;396;52.558;13.188;2023-12-04T00:29:13;101604.47;;;-4.68;95.35
829;BME280;396;52.558;13.188;2023-12-04T00:31:40;101600.53;;;-4.72;95.12
829;BME280;396;52.558;13.188;2023-12-04T00:34:07;101600.44;;;-4.87;95.12
829;BME280;396;52.558;13.188;2023-12-04T00:36:35;101604.91;;;-4.88;95.31
829;BME280;396;52.558;13.188;2023-12-04T00:39:01;101598.19;;;-4.90;94.79
829;BME280;396;52.558;13.188;2023-12-04T00:41:29;101599.81;;;-4.89;95.07
829;BME280;396;52.558;13.188;2023-12-04T00:43:55;101610.88;;;-4.86;94.69
829;BME280;396;52.558;13.188;2023-12-04T00:46:22;101611.69;;;-4.85;96.57
829;BME280;396;52.558;13.188;2023-12-04T00:48:49;101607.81;;;-4.74;97.47
829;BME280;396;52.558;13.188;2023-12-04T00:51:15;101609.09;;;-4.70;98.66
829;BME280;396;52.558;13.188;2023-12-04T00:53:43;101601.94;;;-4.62;99.07
829;BME280;396;52.558;13.188;2023-12-04T00:56:10;101605.88;;;-4.58;98.61
829;BME280;396;52.558;13.188;2023-12-04T00:58:37;101604.88;;;-4.57;99.16
829;BME280;396;52.558;13.188;2023-12-04T01:01:04;101591.97;;;-4.51;99.13
829;BME280;396;52.558;13.188;2023-12-04T01:03:31;101595.25;;;-4.49;99.50
829;BME280;396;52.558;13.188;2023-12-04T01:05:58;101591.72;;;-4.42;99.48
829;BME280;396;52.558;13.188;2023-12-04T01:08:25;101601.25;;;-4.33;99.00
829;BME280;396;52.558;13.188;2023-12-04T01:10:53;101594.75;;;-4.30;98.90
829;BME280;396;52.558;13.188;2023-12-04T01:13:19;101600.28;;;-4.40;98.52
829;BME280;396;52.558;13.188;2023-12-04T01:15:46;101594.38;;;-4.42;98.37
829;BME280;396;52.558;13.188;2023-12-04T01:18:13;101588.09;;;-4.41;98.25
829;BME280;396;52.558;13.188;2023-12-04T01:20:40;101582.50;;;-4.46;98.23
829;BME280;396;52.558;13.188;2023-12-04T01:23:07;101585.69;;;-4.50;98.31
829;BME280;396;52.558;13.188;2023-12-04T01:25:34;101581.91;;;-4.56;98.97
829;BME280;396;52.558;13.188;2023-12-04T01:28:02;101583.72;;;-4.57;98.73
829;BME280;396;52.558;13.188;2023-12-04T01:30:28;101583.56;;;-4.55;98.32
829;BME280;396;52.558;13.188;2023-12-04T01:32:55;101569.16;;;-4.52;98.38
829;BME280;396;52.558;13.188;2023-12-04T01:35:21;101571.94;;;-4.46;99.11
829;BME280;396;52.558;13.188;2023-12-04T01:37:48;101575.88;;;-4.42;99.59
829;BME280;396;52.558;13.188;2023-12-04T01:40:15;101569.50;;;-4.33;100.00
829;BME280;396;52.558;13.188;2023-12-04T01:42:42;101572.09;;;-4.24;100.00
829;BME280;396;52.558;13.188;2023-12-04T01:45:10;101567.44;;;-4.22;100.00
829;BME280;396;52.558;13.188;2023-12-04T01:47:37;101561.59;;;-4.18;100.00
829;BME280;396;52.558;13.188;2023-12-04T01:50:05;101562.16;;;-4.08;100.00
829;BME280;396;52.558;13.188;2023-12-04T01:52:32;101561.53;;;-3.95;100.00
829;BME280;396;52.558;13.188;2023-12-04T01:54:59;101552.97;;;-3.97;100.00
829;BME280;396;52.558;13.188;2023-12-04T01:57:26;101566.81;;;-3.95;100.00
829;BME280;396;52.558;13.188;2023-12-04T01:59:53;101569.13;;;-3.92;100.00
829;BME280;396;52.558;13.188;2023-12-04T02:02:21;101564.09;;;-3.87;100.00
829;BME280;396;52.558;13.188;2023-12-04T02:04:47;101575.44;;;-3.78;100.00
829;BME280;396;52.558;13.188;2023-12-04T02:07:14;101561.66;;;-3.73;100.00
829;BME280;396;52.558;13.188;2023-12-04T02:09:41;101555.63;;;-3.67;100.00
829;BME280;396;52.558;13.188;2023-12-04T02:12:07;101551.16;;;-3.67;100.00
829;BME280;396;52.558;13.188;2023-12-04T02:14:34;101545.22;;;-3.54;100.00
829;BME280;396;52.558;13.188;2023-12-04T02:17:03;101543.66;;;-3.48;100.00
829;BME280;396;52.558;13.188;2023-12-04T02:19:33;101539.06;;;-3.40;100.00
829;BME280;396;52.558;13.188;2023-12-04T02:21:59;101540.09;;;-3.41;100.00
829;BME280;396;52.558;13.188;2023-12-04T02:24:28;101539.06;;;-3.40;100.00
829;BME280;396;52.558;13.188;2023-12-04T02:27:01;101534.78;;;-3.41;100.00
829;BME280;396;52.558;13.188;2023-12-04T02:29:32;101524.47;;;-3.36;100.00
829;BME280;396;52.558;13.188;2023-12-04T02:32:04;101517.50;;;-3.37;100.00
829;BME280;396;52.558;13.188;2023-12-04T02:34:32;101523.25;;;-3.33;100.00
829;BME280;396;52.558;13.188;2023-12-04T02:37:01;101523.34;;;-3.26;100.00
829;BME280;396;52.558;13.188;2023-12-04T02:39:30;101523.34;;;-3.26;100.00
829;BME280;396;52.558;13.188;2023-12-04T02:41:57;101513.47;;;-3.33;100.00
829;BME280;396;52.558;13.188;2023-12-04T02:44:23;101515.50;;;-3.35;100.00
829;BME280;396;52.558;13.188;2023-12-04T02:46:50;101506.53;;;-3.34;100.00
829;BME280;396;52.558;13.188;2023-12-04T02:49:17;101508.72;;;-3.22;100.00
829;BME280;396;52.558;13.188;2023-12-04T02:51:43;101506.44;;;-3.25;100.00
829;BME280;396;52.558;13.188;2023-12-04T02:54:10;101505.41;;;-3.24;100.00
829;BME280;396;52.558;13.188;2023-12-04T02:56:38;101499.13;;;-3.23;100.00
829;BME280;396;52.558;13.188;2023-12-04T02:59:04;101485.88;;;-3.23;100.00
829;BME280;396;52.558;13.188;2023-12-04T03:01:31;101491.03;;;-3.15;100.00
829;BME280;396;52.558;13.188;2023-12-04T03:03:58;101497.44;;;-3.10;100.00
829;BME280;396;52.558;13.188;2023-12-04T03:06:24;101486.84;;;-3.10;100.00
829;BME280;396;52.558;13.188;2023-12-04T03:08:51;101484.00;;;-3.08;100.00
829;BME280;396;52.558;13.188;2023-12-04T03:11:18;101496.03;;;-3.06;100.00
829;BME280;396;52.558;13.188;2023-12-04T03:13:46;101480.78;;;-3.03;100.00
829;BME280;396;52.558;13.188;2023-12-04T03:16:16;101479.31;;;-3.06;100.00
829;BME280;396;52.558;13.188;2023-12-04T03:18:43;101482.38;;;-3.09;100.00
829;BME280;396;52.558;13.188;2023-12-04T03:21:09;101475.03;;;-3.07;100.00
829;BME280;396;52.558;13.188;2023-12-04T03:23:36;101473.03;;;-3.05;100.00
829;BME280;396;52.558;13.188;2023-12-04T03:26:03;101482.25;;;-3.01;100.00
829;BME280;396;52.558;13.188;2023-12-04T03:28:30;101475.72;;;-2.98;100.00
829;BME280;396;52.558;13.188;2023-12-04T03:30:58;101475.94;;;-3.00;100.00
829;BME280;396;52.558;13.188;2023-12-04T03:33:24;101476.38;;;-2.96;100.00
829;BME280;396;52.558;13.188;2023-12-04T03:35:51;101473.91;;;-2.98;100.00
829;BME280;396;52.558;13.188;2023-12-04T03:38:17;101475.38;;;-2.95;100.00
829;BME280;396;52.558;13.188;2023-12-04T03:40:44;101466.53;;;-3.02;100.00
829;BME280;396;52.558;13.188;2023-12-04T03:43:11;101458.41;;;-3.01;100.00
829;BME280;396;52.558;13.188;2023-12-04T03:45:37;101463.94;;;-2.96;100.00
829;BME280;396;52.558;13.188;2023-12-04T03:48:05;101446.38;;;-2.97;100.00
829;BME280;396;52.558;13.188;2023-12-04T03:50:32;101449.91;;;-2.90;100.00
829;BME280;396;52.558;13.188;2023-12-04T03:52:59;101442.78;;;-2.89;100.00
829;BME280;396;52.558;13.188;2023-12-04T03:55:25;101443.59;;;-2.89;100.00
829;BME280;396;52.558;13.188;2023-12-04T03:57:52;101441.16;;;-2.90;100.00
829;BME280;396;52.558;13.188;2023-12-04T04:00:19;101450.75;;;-2.89;100.00
829;BME280;396;52.558;13.188;2023-12-04T04:02:46;101452.38;;;-2.88;100.00
829;BME280;396;52.558;13.188;2023-12-04T04:05:14;101440.78;;;-2.87;100.00
829;BME280;396;52.558;13.188;2023-12-04T04:07:41;101443.59;;;-2.89;100.00
829;BME280;396;52.558;13.188;2023-12-04T04:10:08;101449.34;;;-2.85;100.00
829;BME280;396;52.558;13.188;2023-12-04T04:12:35;101440.50;;;-2.92;100.00
829;BME280;396;52.558;13.188;2023-12-04T04:15:01;101445.81;;;-2.92;100.00
829;BME280;396;52.558;13.188;2023-12-04T04:17:28;101446.81;;;-2.93;100.00
829;BME280;396;52.558;13.188;2023-12-04T04:19:55;101450.28;;;-2.93;100.00
829;BME280;396;52.558;13.188;2023-12-04T04:22:23;101449.47;;;-2.93;100.00
829;BME280;396;52.558;13.188;2023-12-04T04:24:49;101458.66;;;-2.96;100.00
829;BME280;396;52.558;13.188;2023-12-04T04:27:16;101452.53;;;-2.96;100.00
829;BME280;396;52.558;13.188;2023-12-04T04:29:43;101448.66;;;-2.94;100.00
829;BME280;396;52.558;13.188;2023-12-04T04:32:10;101453.97;;;-2.94;100.00
829;BME280;396;52.558;13.188;2023-12-04T04:34:36;101454.97;;;-2.95;100.00
829;BME280;396;52.558;13.188;2023-12-04T04:37:03;101451.50;;;-2.95;100.00
829;BME280;396;52.558;13.188;2023-12-04T04:39:31;101454.34;;;-2.97;100.00
829;BME280;396;52.558;13.188;2023-12-04T04:41:58;101443.50;;;-3.02;100.00
829;BME280;396;52.558;13.188;2023-12-04T04:44:24;101440.03;;;-3.02;100.00
829;BME280;396;52.558;13.188;2023-12-04T04:46:51;101434.03;;;-3.11;100.00
829;BME280;396;52.558;13.188;2023-12-04T04:49:17;101429.38;;;-3.09;100.00
829;BME280;396;52.558;13.188;2023-12-04T04:51:44;101424.06;;;-3.09;100.00
829;BME280;396;52.558;13.188;2023-12-04T04:54:11;101426.91;;;-3.11;100.00
829;BME280;396;52.558;13.188;2023-12-04T04:56:39;101421.03;;;-3.06;100.00
829;BME280;396;52.558;13.188;2023-12-04T04:59:05;101421.31;;;-3.01;100.00
829;BME280;396;52.558;13.188;2023-12-04T05:01:32;101412.34;;;-3.00;99.85
829;BME280;396;52.558;13.188;2023-12-04T05:03:58;101421.47;;;-3.02;99.54
829;BME280;396;52.558;13.188;2023-12-04T05:06:25;101423.94;;;-3.01;99.64
829;BME280;396;52.558;13.188;2023-12-04T05:08:52;101431.50;;;-2.98;99.86
829;BME280;396;52.558;13.188;2023-12-04T05:11:18;101418.44;;;-2.99;99.62
829;BME280;396;52.558;13.188;2023-12-04T05:13:47;101417.22;;;-2.97;100.00
829;BME280;396;52.558;13.188;2023-12-04T05:16:13;101405.44;;;-2.94;100.00
829;BME280;396;52.558;13.188;2023-12-04T05:18:40;101398.09;;;-2.92;100.00
829;BME280;396;52.558;13.188;2023-12-04T05:21:08;101394.47;;;-2.91;99.77
829;BME280;396;52.558;13.188;2023-12-04T05:23:35;101395.53;;;-2.86;99.66
829;BME280;396;52.558;13.188;2023-12-04T05:26:01;101392.88;;;-2.86;99.78
829;BME280;396;52.558;13.188;2023-12-04T05:28:28;101391.47;;;-2.82;99.38
829;BME280;396;52.558;13.188;2023-12-04T05:30:56;101385.53;;;-2.84;99.25
829;BME280;396;52.558;13.188;2023-12-04T05:33:23;101385.13;;;-2.87;99.07
829;BME280;396;52.558;13.188;2023-12-04T05:35:49;101383.91;;;-2.85;98.94
829;BME280;396;52.558;13.188;2023-12-04T05:38:17;101385.94;;;-2.87;98.84
829;BME280;396;52.558;13.188;2023-12-04T05:40:44;101392.44;;;-2.89;98.58
829;BME280;396;52.558;13.188;2023-12-04T05:43:11;101394.47;;;-2.91;98.43
829;BME280;396;52.558;13.188;2023-12-04T05:45:38;101388.34;;;-2.92;98.12
829;BME280;396;52.558;13.188;2023-12-04T05:48:06;101381.81;;;-2.89;98.25
829;BME280;396;52.558;13.188;2023-12-04T05:50:33;101376.97;;;-2.86;98.20
829;BME280;396;52.558;13.188;2023-12-04T05:52:59;101372.69;;;-2.87;98.02
829;BME280;396;52.558;13.188;2023-12-04T05:55:26;101382.31;;;-2.79;98.00
829;BME280;396;52.558;13.188;2023-12-04T05:57:53;101383.97;;;-2.78;98.12
829;BME280;396;52.558;13.188;2023-12-04T06:00:19;101382.38;;;-2.72;98.27
829;BME280;396;52.558;13.188;2023-12-04T06:02:47;101382.97;;;-2.70;98.28
829;BME280;396;52.558;13.188;2023-12-04T06:05:15;101383.25;;;-2.65;98.63
829;BME280;396;52.558;13.188;2023-12-04T06:07:42;101379.13;;;-2.68;98.66
829;BME280;396;52.558;13.188;2023-12-04T06:10:09;101375.28;;;-2.65;99.35
829;BME280;396;52.558;13.188;2023-12-04T06:12:35;101373.00;;;-2.68;98.98
829;BME280;396;52.558;13.188;2023-12-04T06:15:02;101368.31;;;-2.66;99.74
829;BME280;396;52.558;13.188;2023-12-04T06:17:29;101368.75;;;-2.63;100.00
829;BME280;396;52.558;13.188;2023-12-04T06:19:55;101372.88;;;-2.54;99.98
829;BME280;396;52.558;13.188;2023-12-04T06:22:24;101370.28;;;-2.47;99.97
829;BME280;396;52.558;13.188;2023-12-04T06:24:52;101370.28;;;-2.47;100.00
829;BME280;396;52.558;13.188;2023-12-04T06:27:19;101367.22;;;-2.44;100.00
829;BME280;396;52.558;13.188;2023-12-04T06:29:46;101371.72;;;-2.44;100.00
829;BME280;396;52.558;13.188;2023-12-04T06:32:14;101367.88;;;-2.42;99.70
829;BME280;396;52.558;13.188;2023-12-04T06:34:42;101371.09;;;-2.46;98.89
829;BME280;396;52.558;13.188;2023-12-04T06:37:09;101368.44;;;-2.46;99.09
829;BME280;396;52.558;13.188;2023-12-04T06:39:39;101367.63;;;-2.47;98.60
829;BME280;396;52.558;13.188;2023-12-04T06:42:08;101363.16;;;-2.46;98.60
829;BME280;396;52.558;13.188;2023-12-04T06:44:35;101362.94;;;-2.45;98.76
829;BME280;396;52.558;13.188;2023-12-04T06:47:03;101362.28;;;-2.54;97.89
829;BME280;396;52.558;13.188;2023-12-04T06:49:30;101351.50;;;-2.52;98.17
829;BME280;396;52.558;13.188;2023-12-04T06:51:58;101351.09;;;-2.49;98.41
829;BME280;396;52.558;13.188;2023-12-04T06:54:24;101347.66;;;-2.43;98.69
829;BME280;396;52.558;13.188;2023-12-04T06:56:53;101343.94;;;-2.48;98.55
829;BME280;396;52.558;13.188;2023-12-04T06:59:19;101335.41;;;-2.44;98.44
829;BME280;396;52.558;13.188;2023-12-04T07:01:46;101349.31;;;-2.42;98.47
829;BME280;396;52.558;13.188;2023-12-04T07:04:13;101340.97;;;-2.39;98.75
829;BME280;396;52.558;13.188;2023-12-04T07:06:46;101338.91;;;-2.37;98.17
829;BME280;396;52.558;13.188;2023-12-04T07:09:12;101347.31;;;-2.33;98.24
829;BME280;396;52.558;13.188;2023-12-04T07:11:39;101344.06;;;-2.29;98.30
829;BME280;396;52.558;13.188;2023-12-04T07:14:07;101335.72;;;-2.25;97.75
829;BME280;396;52.558;13.188;2023-12-04T07:16:39;101338.38;;;-2.25;98.02
829;BME280;396;52.558;13.188;2023-12-04T07:19:05;101339.78;;;-2.23;97.81
829;BME280;396;52.558;13.188;2023-12-04T07:21:32;101335.13;;;-2.14;98.35
829;BME280;396;52.558;13.188;2023-12-04T07:23:58;101336.38;;;-2.10;99.37
829;BME280;396;52.558;13.188;2023-12-04T07:26:25;101335.19;;;-2.01;99.13
829;BME280;396;52.558;13.188;2023-12-04T07:28:52;101336.22;;;-1.95;99.00
829;BME280;396;52.558;13.188;2023-12-04T07:31:20;101337.44;;;-1.98;98.60
829;BME280;396;52.558;13.188;2023-12-04T07:33:47;101325.19;;;-1.99;98.17
829;BME280;396;52.558;13.188;2023-12-04T07:36:13;101323.38;;;-1.92;97.98
829;BME280;396;52.558;13.188;2023-12-04T07:38:40;101321.94;;;-1.88;97.62
829;BME280;396;52.558;13.188;2023-12-04T07:41:07;101325.41;;;-1.87;97.64
829;BME280;396;52.558;13.188;2023-12-04T07:43:33;101327.69;;;-1.78;98.39
829;BME280;396;52.558;13.188;2023-12-04T07:46:00;101329.72;;;-1.73;97.78
829;BME280;396;52.558;13.188;2023-12-04T07:48:28;101333.22;;;-1.72;97.62
829;BME280;396;52.558;13.188;2023-12-04T07:50:55;101334.25;;;-1.67;97.90
829;BME280;396;52.558;13.188;2023-12-04T07:53:21;101323.25;;;-1.64;98.52
829;BME280;396;52.558;13.188;2023-12-04T07:55:48;101324.84;;;-1.56;98.82
829;BME280;396;52.558;13.188;2023-12-04T07:58:16;101322.41;;;-1.51;99.46
829;BME280;396;52.558;13.188;2023-12-04T08:00:43;101326.31;;;-1.40;99.06
829;BME280;396;52.558;13.188;2023-12-04T08:03:10;101323.25;;;-1.37;98.86
829;BME280;396;52.558;13.188;2023-12-04T08:05:38;101322.22;;;-1.30;97.99
829;BME280;396;52.558;13.188;2023-12-04T08:08:04;101323.25;;;-1.31;97.55
829;BME280;396;52.558;13.188;2023-12-04T08:10:31;101327.56;;;-1.23;97.24
829;BME280;396;52.558;13.188;2023-12-04T08:12:58;101320.19;;;-1.28;96.19
829;BME280;396;52.558;13.188;2023-12-04T08:15:25;101320.78;;;-1.25;96.31
829;BME280;396;52.558;13.188;2023-12-04T08:17:52;101321.19;;;-1.15;96.49
829;BME280;396;52.558;13.188;2023-12-04T08:20:18;101308.94;;;-1.10;95.92
829;BME280;396;52.558;13.188;2023-12-04T08:22:49;101308.13;;;-1.10;96.23
829;BME280;396;52.558;13.188;2023-12-04T08:25:15;101306.69;;;-1.06;96.01
829;BME280;396;52.558;13.188;2023-12-04T08:27:42;101311.19;;;-1.00;96.01
829;BME280;396;52.558;13.188;2023-12-04T08:30:09;101317.09;;;-0.91;96.23
829;BME280;396;52.558;13.188;2023-12-04T08:32:36;101318.72;;;-0.90;95.66
829;BME280;396;52.558;13.188;2023-12-04T08:35:03;101318.09;;;-0.86;95.54
829;BME280;396;52.558;13.188;2023-12-04T08:37:31;101317.88;;;-0.78;95.18
829;BME280;396;52.558;13.188;2023-12-04T08:39:59;101312.97;;;-0.81;95.35
829;BME280;396;52.558;13.188;2023-12-04T08:42:26;101307.25;;;-0.78;94.93
829;BME280;396;52.558;13.188;2023-12-04T08:44:53;101307.25;;;-0.78;95.14
829;BME280;396;52.558;13.188;2023-12-04T08:47:19;101302.13;;;-0.66;95.25
829;BME280;396;52.558;13.188;2023-12-04T08:49:46;101296.94;;;-0.54;94.87
829;BME280;396;52.558;13.188;2023-12-04T08:52:13;101303.06;;;-0.47;94.95
829;BME280;396;52.558;13.188;2023-12-04T08:54:40;101309.00;;;-0.45;94.36
829;BME280;396;52.558;13.188;2023-12-04T08:57:08;101306.72;;;-0.41;94.41
829;BME280;396;52.558;13.188;2023-12-04T08:59:35;101312.81;;;-0.28;94.41
829;BME280;396;52.558;13.188;2023-12-04T09:02:02;101310.56;;;-0.24;93.49
829;BME280;396;52.558;13.188;2023-12-04T09:04:29;101301.72;;;-0.18;93.45
829;BME280;396;52.558;13.188;2023-12-04T09:06:56;101303.16;;;-0.15;93.30
829;BME280;396;52.558;13.188;2023-12-04T09:09:22;101307.03;;;-0.11;92.96
829;BME280;396;52.558;13.188;2023-12-04T09:11:49;101303.75;;;-0.13;92.81
829;BME280;396;52.558;13.188;2023-12-04T09:14:17;101305.59;;;-0.14;93.24
829;BME280;396;52.558;13.188;2023-12-04T09:16:43;101306.59;;;-0.08;93.09
829;BME280;396;52.558;13.188;2023-12-04T09:19:10;101313.13;;;-0.04;92.94
829;BME280;396;52.558;13.188;2023-12-04T09:21:38;101310.25;;;-0.03;93.03
829;BME280;396;52.558;13.188;2023-12-04T09:24:05;101304.50;;;0.01;92.32
829;BME280;396;52.558;13.188;2023-12-04T09:26:33;101296.28;;;0.02;91.98
829;BME280;396;52.558;13.188;2023-12-04T09:28:59;101304.69;;;-0.01;91.35
829;BME280;396;52.558;13.188;2023-12-04T09:31:27;101311.06;;;-0.02;90.97
829;BME280;396;52.558;13.188;2023-12-04T09:33:54;101306.72;;;0.04;90.81
829;BME280;396;52.558;13.188;2023-12-04T09:36:21;101311.69;;;0.00;90.49
829;BME280;396;52.558;13.188;2023-12-04T09:38:47;101313.34;;;-0.06;90.03
829;BME280;396;52.558;13.188;2023-12-04T09:41:15;101311.47;;;-0.05;89.97
829;BME280;396;52.558;13.188;2023-12-04T09:43:43;101309.44;;;-0.03;89.94
829;BME280;396;52.558;13.188;2023-12-04T09:46:11;101311.25;;;0.03;89.72
829;BME280;396;52.558;13.188;2023-12-04T09:48:40;101301.41;;;0.04;89.81
829;BME280;396;52.558;13.188;2023-12-04T09:51:09;101290.97;;;0.02;89.80
829;BME280;396;52.558;13.188;2023-12-04T09:53:36;101295.72;;;0.00;89.70
829;BME280;396;52.558;13.188;2023-12-04T09:56:03;101288.91;;;0.04;89.65
829;BME280;396;52.558;13.188;2023-12-04T09:58:31;101291.97;;;0.08;89.53
829;BME280;396;52.558;13.188;2023-12-04T10:00:58;101295.88;;;0.05;89.58
829;BME280;396;52.558;13.188;2023-12-04T10:03:26;101290.09;;;0.08;89.87
829;BME280;396;52.558;13.188;2023-12-04T10:05:54;101296.25;;;0.09;89.46
829;BME280;396;52.558;13.188;2023-12-04T10:08:21;101287.19;;;0.16;89.49
829;BME280;396;52.558;13.188;2023-12-04T10:10:48;101293.31;;;0.23;90.34
829;BME280;396;52.558;13.188;2023-12-04T10:13:14;101282.16;;;0.33;90.04
829;BME280;396;52.558;13.188;2023-12-04T10:15:46;101285.88;;;0.32;88.71
829;BME280;396;52.558;13.188;2023-12-04T10:18:24;101278.84;;;0.38;88.73
829;BME280;396;52.558;13.188;2023-12-04T10:20:52;101279.63;;;0.45;88.41
829;BME280;396;52.558;13.188;2023-12-04T10:23:21;101277.56;;;0.47;87.97
829;BME280;396;52.558;13.188;2023-12-04T10:25:48;101268.34;;;0.43;87.68
829;BME280;396;52.558;13.188;2023-12-04T10:28:16;101262.00;;;0.44;87.73
829;BME280;396;52.558;13.188;2023-12-04T10:30:43;101256.84;;;0.49;87.46
829;BME280;396;52.558;13.188;2023-12-04T10:33:10;101250.34;;;0.38;87.32
829;BME280;396;52.558;13.188;2023-12-04T10:35:37;101251.94;;;0.46;88.31
829;BME280;396;52.558;13.188;2023-12-04T10:38:05;101240.63;;;0.50;87.48
829;BME280;396;52.558;13.188;2023-12-04T10:40:35;101233.84;;;0.55;87.27
829;BME280;396;52.558;13.188;2023-12-04T10:43:14;101237.25;;;0.62;86.76
829;BME280;396;52.558;13.188;2023-12-04T10:45:42;101231.31;;;0.60;86.74
829;BME280;396;52.558;13.188;2023-12-04T10:48:11;101227.41;;;0.62;86.48
829;BME280;396;52.558;13.188;2023-12-04T10:50:39;101227.03;;;0.59;87.63
829;BME280;396;52.558;13.188;2023-12-04T10:53:06;101222.09;;;0.62;87.89
829;BME280;396;52.558;13.188;2023-12-04T10:55:35;101209.63;;;0.56;87.12
829;BME280;396;52.558;13.188;2023-12-04T10:58:04;101207.56;;;0.58;87.01
829;BME280;396;52.558;13.188;2023-12-04T11:00:33;101209.03;;;0.54;87.04
829;BME280;396;52.558;13.188;2023-12-04T11:03:04;101197.09;;;0.57;86.83
829;BME280;396;52.558;13.188;2023-12-04T11:05:37;101193.78;;;0.61;86.90
829;BME280;396;52.558;13.188;2023-12-04T11:08:05;101195.47;;;0.56;87.10
829;BME280;396;52.558;13.188;2023-12-04T11:10:37;101185.16;;;0.41;87.64
829;BME280;396;52.558;13.188;2023-12-04T11:13:08;101184.50;;;0.45;87.51
829;BME280;396;52.558;13.188;2023-12-04T11:15:39;101184.06;;;0.48;87.52
829;BME280;396;52.558;13.188;2023-12-04T11:18:09;101175.63;;;0.52;87.03
829;BME280;396;52.558;13.188;2023-12-04T11:20:42;101175.34;;;0.60;86.98
829;BME280;396;52.558;13.188;2023-12-04T11:23:11;101176.97;;;0.61;87.53
829;BME280;396;52.558;13.188;2023-12-04T11:25:41;101185.94;;;0.66;87.50
829;BME280;396;52.558;13.188;2023-12-04T11:28:08;101185.06;;;0.72;87.55
829;BME280;396;52.558;13.188;2023-12-04T11:30:36;101174.13;;;0.81;87.77
829;BME280;396;52.558;13.188;2023-12-04T11:33:04;101175.75;;;0.82;87.12
829;BME280;396;52.558;13.188;2023-12-04T11:35:33;101175.50;;;0.83;86.19
829;BME280;396;52.558;13.188;2023-12-04T11:38:00;101174.97;;;0.74;85.69
829;BME280;396;52.558;13.188;2023-12-04T11:40:27;101170.78;;;0.67;86.23
829;BME280;396;52.558;13.188;2023-12-04T11:42:55;101166.56;;;0.78;86.96
829;BME280;396;52.558;13.188;2023-12-04T11:45:21;101164.78;;;0.90;86.58
829;BME280;396;52.558;13.188;2023-12-04T11:47:49;101168.63;;;1.12;86.13
829;BME280;396;52.558;13.188;2023-12-04T11:50:16;101165.94;;;1.31;85.54
829;BME280;396;52.558;13.188;2023-12-04T11:52:44;101168.97;;;1.34;84.34
829;BME280;396;52.558;13.188;2023-12-04T11:55:10;101157.69;;;1.32;84.40
829;BME280;396;52.558;13.188;2023-12-04T11:57:38;101159.47;;;1.38;84.46
829;BME280;396;52.558;13.188;2023-12-04T12:00:19;101159.47;;;1.38;83.61
829;BME280;396;52.558;13.188;2023-12-04T12:02:49;101159.72;;;1.18;83.67
829;BME280;396;52.558;13.188;2023-12-04T12:05:26;101156.69;;;1.15;84.33
829;BME280;396;52.558;13.188;2023-12-04T12:07:53;101141.94;;;1.12;84.52
829;BME280;396;52.558;13.188;2023-12-04T12:10:21;101141.22;;;1.05;85.86
829;BME280;396;52.558;13.188;2023-12-04T12:12:48;101136.09;;;1.04;85.47
829;BME280;396;52.558;13.188;2023-12-04T12:15:16;101139.06;;;0.95;86.50
829;BME280;396;52.558;13.188;2023-12-04T12:17:42;101130.56;;;0.87;86.74
829;BME280;396;52.558;13.188;2023-12-04T12:20:14;101131.75;;;0.91;86.99
829;BME280;396;52.558;13.188;2023-12-04T12:22:41;101133.38;;;0.92;87.37
829;BME280;396;52.558;13.188;2023-12-04T12:25:10;101132.56;;;0.91;87.27
829;BME280;396;52.558;13.188;2023-12-04T12:27:36;101120.31;;;0.84;87.67
829;BME280;396;52.558;13.188;2023-12-04T12:30:06;101117.53;;;0.79;88.09
829;BME280;396;52.558;13.188;2023-12-04T12:32:34;101119.31;;;0.85;87.92
829;BME280;396;52.558;13.188;2023-12-04T12:35:02;101112.94;;;0.86;87.99
829;BME280;396;52.558;13.188;2023-12-04T12:37:29;101108.19;;;0.88;88.82
829;BME280;396;52.558;13.188;2023-12-04T12:39:56;101112.50;;;0.89;88.85
829;BME280;396;52.558;13.188;2023-12-04T12:42:24;101106.13;;;0.90;88.51
829;BME280;396;52.558;13.188;2023-12-04T12:44:51;101111.16;;;0.98;88.59
829;BME280;396;52.558;13.188;2023-12-04T12:47:18;101103.72;;;1.00;88.82
829;BME280;396;52.558;13.188;2023-12-04T12:49:47;101100.00;;;1.01;89.58
829;BME280;396;52.558;13.188;2023-12-04T12:52:14;101099.00;;;1.02;90.04
829;BME280;396;52.558;13.188;2023-12-04T12:54:41;101092.63;;;1.03;89.57
829;BME280;396;52.558;13.188;2023-12-04T12:57:09;101094.09;;;0.99;88.77
829;BME280;396;52.558;13.188;2023-12-04T12:59:37;101078.53;;;0.96;88.62
829;BME280;396;52.558;13.188;2023-12-04T13:02:04;101085.22;;;0.87;89.58
829;BME280;396;52.558;13.188;2023-12-04T13:04:35;101084.94;;;0.95;89.29
829;BME280;396;52.558;13.188;2023-12-04T13:07:04;101072.94;;;0.86;89.78
829;BME280;396;52.558;13.188;2023-12-04T13:09:31;101074.78;;;0.85;89.51
829;BME280;396;52.558;13.188;2023-12-04T13:11:58;101079.31;;;0.85;89.98
829;BME280;396;52.558;13.188;2023-12-04T13:14:25;101076.84;;;0.83;90.31
829;BME280;396;52.558;13.188;2023-12-04T13:16:51;101071.75;;;0.82;90.20
829;BME280;396;52.558;13.188;2023-12-04T13:19:20;101068.47;;;0.80;90.69
829;BME280;396;52.558;13.188;2023-12-04T13:21:46;101064.34;;;0.84;90.97
829;BME280;396;52.558;13.188;2023-12-04T13:24:14;101065.69;;;0.74;91.15